sensor_id;sensor_type;location;lat;lon;timestamp;P1;durP1;ratioP1;P2;durP2;ratioP2
4595;SDS011;2310;49.978;8.742;2023-04-29T00:03:24;4.30;;;3.17;;
4595;SDS011;2310;49.978;8.742;2023-04-29T00:07:28;3.57;;;2.70;;
4595;SDS011;2310;49.978;8.742;2023-04-29T00:11:29;4.47;;;2.83;;
4595;SDS011;2310;49.978;8.742;2023-04-29T00:15:30;5.67;;;2.60;;
4595;SDS011;2310;49.978;8.742;2023-04-29T00:19:31;4.40;;;2.90;;
4595;SDS011;2310;49.978;8.742;2023-04-29T00:23:33;5.20;;;3.40;;
4595;SDS011;2310;49.978;8.742;2023-04-29T00:27:34;5.57;;;4.20;;
4595;SDS011;2310;49.978;8.742;2023-04-29T00:31:35;5.03;;;3.33;;
4595;SDS011;2310;49.978;8.742;2023-04-29T00:35:38;4.40;;;3.20;;
4595;SDS011;2310;49.978;8.742;2023-04-29T00:39:39;6.37;;;3.00;;
4595;SDS011;2310;49.978;8.742;2023-04-29T00:43:40;6.30;;;3.50;;
4595;SDS011;2310;49.978;8.742;2023-04-29T00:47:41;4.87;;;3.40;;
4595;SDS011;2310;49.978;8.742;2023-04-29T00:51:43;4.63;;;2.77;;
4595;SDS011;2310;49.978;8.742;2023-04-29T00:55:44;4.40;;;3.30;;
4595;SDS011;2310;49.978;8.742;2023-04-29T00:59:47;5.40;;;3.60;;
4595;SDS011;2310;49.978;8.742;2023-04-29T01:03:50;4.50;;;2.70;;
4595;SDS011;2310;49.978;8.742;2023-04-29T01:16:44;5.70;;;3.83;;
4595;SDS011;2310;49.978;8.742;2023-04-29T01:20:49;5.43;;;4.23;;
4595;SDS011;2310;49.978;8.742;2023-04-29T01:24:52;9.83;;;4.13;;
4595;SDS011;2310;49.978;8.742;2023-04-29T01:28:58;7.30;;;3.67;;
4595;SDS011;2310;49.978;8.742;2023-04-29T01:37:45;6.57;;;4.60;;
4595;SDS011;2310;49.978;8.742;2023-04-29T01:41:50;6.63;;;4.67;;
4595;SDS011;2310;49.978;8.742;2023-04-29T01:45:48;7.30;;;5.40;;
4595;SDS011;2310;49.978;8.742;2023-04-29T01:49:51;6.60;;;4.90;;
4595;SDS011;2310;49.978;8.742;2023-04-29T01:53:52;7.07;;;5.53;;
4595;SDS011;2310;49.978;8.742;2023-04-29T01:57:54;8.30;;;5.10;;
4595;SDS011;2310;49.978;8.742;2023-04-29T02:01:55;6.47;;;5.77;;
4595;SDS011;2310;49.978;8.742;2023-04-29T02:05:58;7.90;;;6.57;;
4595;SDS011;2310;49.978;8.742;2023-04-29T02:09:59;8.73;;;6.40;;
4595;SDS011;2310;49.978;8.742;2023-04-29T02:14:00;6.87;;;6.17;;
4595;SDS011;2310;49.978;8.742;2023-04-29T02:18:01;6.80;;;5.93;;
4595;SDS011;2310;49.978;8.742;2023-04-29T02:22:03;7.23;;;6.30;;
4595;SDS011;2310;49.978;8.742;2023-04-29T02:26:04;8.87;;;6.13;;
4595;SDS011;2310;49.978;8.742;2023-04-29T02:30:06;8.30;;;5.63;;
4595;SDS011;2310;49.978;8.742;2023-04-29T02:34:09;7.60;;;5.67;;
4595;SDS011;2310;49.978;8.742;2023-04-29T02:38:10;7.90;;;6.60;;
4595;SDS011;2310;49.978;8.742;2023-04-29T02:42:14;7.27;;;6.13;;
4595;SDS011;2310;49.978;8.742;2023-04-29T02:46:15;6.80;;;5.93;;
4595;SDS011;2310;49.978;8.742;2023-04-29T02:50:18;6.90;;;6.00;;
4595;SDS011;2310;49.978;8.742;2023-04-29T02:54:19;6.90;;;5.70;;
4595;SDS011;2310;49.978;8.742;2023-04-29T02:58:21;8.50;;;6.20;;
4595;SDS011;2310;49.978;8.742;2023-04-29T03:02:22;6.93;;;5.90;;
4595;SDS011;2310;49.978;8.742;2023-04-29T03:06:23;6.53;;;5.10;;
4595;SDS011;2310;49.978;8.742;2023-04-29T03:10:25;7.63;;;5.90;;
4595;SDS011;2310;49.978;8.742;2023-04-29T03:14:26;7.47;;;6.27;;
4595;SDS011;2310;49.978;8.742;2023-04-29T03:18:28;6.90;;;5.90;;
4595;SDS011;2310;49.978;8.742;2023-04-29T03:22:29;7.00;;;5.37;;
4595;SDS011;2310;49.978;8.742;2023-04-29T03:26:30;7.37;;;6.20;;
4595;SDS011;2310;49.978;8.742;2023-04-29T03:30:31;6.60;;;5.33;;
4595;SDS011;2310;49.978;8.742;2023-04-29T03:34:32;7.87;;;5.83;;
4595;SDS011;2310;49.978;8.742;2023-04-29T03:38:34;7.50;;;6.07;;
4595;SDS011;2310;49.978;8.742;2023-04-29T03:42:35;5.57;;;4.93;;
4595;SDS011;2310;49.978;8.742;2023-04-29T03:46:36;6.20;;;5.40;;
4595;SDS011;2310;49.978;8.742;2023-04-29T03:50:38;9.77;;;7.13;;
4595;SDS011;2310;49.978;8.742;2023-04-29T03:54:39;7.73;;;6.60;;
4595;SDS011;2310;49.978;8.742;2023-04-29T03:58:41;7.87;;;6.47;;
4595;SDS011;2310;49.978;8.742;2023-04-29T04:02:42;7.10;;;6.40;;
4595;SDS011;2310;49.978;8.742;2023-04-29T04:06:43;7.30;;;5.93;;
4595;SDS011;2310;49.978;8.742;2023-04-29T04:10:46;7.47;;;6.40;;
4595;SDS011;2310;49.978;8.742;2023-04-29T04:14:47;8.43;;;6.67;;
4595;SDS011;2310;49.978;8.742;2023-04-29T04:18:49;7.70;;;6.90;;
4595;SDS011;2310;49.978;8.742;2023-04-29T04:22:50;7.97;;;6.50;;
4595;SDS011;2310;49.978;8.742;2023-04-29T04:26:51;9.80;;;6.40;;
4595;SDS011;2310;49.978;8.742;2023-04-29T04:30:52;7.30;;;6.20;;
4595;SDS011;2310;49.978;8.742;2023-04-29T04:34:53;6.70;;;5.80;;
4595;SDS011;2310;49.978;8.742;2023-04-29T04:38:54;10.90;;;6.20;;
4595;SDS011;2310;49.978;8.742;2023-04-29T04:42:56;8.47;;;7.33;;
4595;SDS011;2310;49.978;8.742;2023-04-29T04:46:57;7.83;;;6.80;;
4595;SDS011;2310;49.978;8.742;2023-04-29T04:50:58;7.80;;;6.60;;
4595;SDS011;2310;49.978;8.742;2023-04-29T04:55:00;10.00;;;7.87;;
4595;SDS011;2310;49.978;8.742;2023-04-29T04:59:02;8.80;;;7.90;;
4595;SDS011;2310;49.978;8.742;2023-04-29T05:03:03;11.37;;;8.83;;
4595;SDS011;2310;49.978;8.742;2023-04-29T05:07:05;12.10;;;9.37;;
4595;SDS011;2310;49.978;8.742;2023-04-29T05:11:06;11.93;;;9.87;;
4595;SDS011;2310;49.978;8.742;2023-04-29T05:15:16;13.60;;;11.67;;
4595;SDS011;2310;49.978;8.742;2023-04-29T05:19:18;18.53;;;12.60;;
4595;SDS011;2310;49.978;8.742;2023-04-29T05:23:20;15.20;;;12.53;;
4595;SDS011;2310;49.978;8.742;2023-04-29T05:27:22;15.00;;;13.40;;
4595;SDS011;2310;49.978;8.742;2023-04-29T05:31:24;16.20;;;13.03;;
4595;SDS011;2310;49.978;8.742;2023-04-29T05:35:26;12.97;;;11.30;;
4595;SDS011;2310;49.978;8.742;2023-04-29T05:39:27;13.13;;;11.60;;
4595;SDS011;2310;49.978;8.742;2023-04-29T05:43:28;14.77;;;12.80;;
4595;SDS011;2310;49.978;8.742;2023-04-29T05:47:29;14.20;;;10.83;;
4595;SDS011;2310;49.978;8.742;2023-04-29T05:51:31;13.30;;;10.80;;
4595;SDS011;2310;49.978;8.742;2023-04-29T05:55:32;13.33;;;9.10;;
4595;SDS011;2310;49.978;8.742;2023-04-29T05:59:33;13.07;;;9.80;;
4595;SDS011;2310;49.978;8.742;2023-04-29T06:03:35;13.50;;;10.23;;
4595;SDS011;2310;49.978;8.742;2023-04-29T06:07:37;12.73;;;8.07;;
4595;SDS011;2310;49.978;8.742;2023-04-29T06:11:39;12.80;;;8.40;;
4595;SDS011;2310;49.978;8.742;2023-04-29T06:15:41;10.53;;;6.90;;
4595;SDS011;2310;49.978;8.742;2023-04-29T06:19:42;9.20;;;6.90;;
4595;SDS011;2310;49.978;8.742;2023-04-29T06:23:43;10.13;;;7.77;;
4595;SDS011;2310;49.978;8.742;2023-04-29T06:27:45;10.17;;;6.70;;
4595;SDS011;2310;49.978;8.742;2023-04-29T06:31:46;9.03;;;6.33;;
4595;SDS011;2310;49.978;8.742;2023-04-29T06:35:47;8.03;;;6.17;;
4595;SDS011;2310;49.978;8.742;2023-04-29T06:39:48;9.70;;;7.20;;
4595;SDS011;2310;49.978;8.742;2023-04-29T06:43:49;11.20;;;8.03;;
4595;SDS011;2310;49.978;8.742;2023-04-29T06:47:50;9.93;;;6.60;;
4595;SDS011;2310;49.978;8.742;2023-04-29T06:51:51;11.90;;;7.00;;
4595;SDS011;2310;49.978;8.742;2023-04-29T06:55:53;8.60;;;6.40;;
4595;SDS011;2310;49.978;8.742;2023-04-29T06:59:54;8.10;;;5.73;;
4595;SDS011;2310;49.978;8.742;2023-04-29T07:03:56;7.03;;;5.50;;
4595;SDS011;2310;49.978;8.742;2023-04-29T07:07:57;8.13;;;5.40;;
4595;SDS011;2310;49.978;8.742;2023-04-29T07:11:59;9.67;;;6.50;;
4595;SDS011;2310;49.978;8.742;2023-04-29T07:16:00;9.73;;;6.20;;
4595;SDS011;2310;49.978;8.742;2023-04-29T07:20:02;10.50;;;6.50;;
4595;SDS011;2310;49.978;8.742;2023-04-29T07:24:04;9.90;;;7.07;;
4595;SDS011;2310;49.978;8.742;2023-04-29T07:28:05;8.27;;;6.77;;
4595;SDS011;2310;49.978;8.742;2023-04-29T07:32:08;8.10;;;6.70;;
4595;SDS011;2310;49.978;8.742;2023-04-29T07:36:09;7.73;;;6.27;;
4595;SDS011;2310;49.978;8.742;2023-04-29T07:40:11;9.60;;;6.30;;
4595;SDS011;2310;49.978;8.742;2023-04-29T07:44:12;7.17;;;5.60;;
4595;SDS011;2310;49.978;8.742;2023-04-29T07:48:14;9.83;;;6.63;;
4595;SDS011;2310;49.978;8.742;2023-04-29T07:52:15;8.60;;;7.47;;
4595;SDS011;2310;49.978;8.742;2023-04-29T07:56:16;10.20;;;8.27;;
4595;SDS011;2310;49.978;8.742;2023-04-29T08:00:18;8.73;;;6.60;;
4595;SDS011;2310;49.978;8.742;2023-04-29T08:04:19;7.23;;;5.67;;
4595;SDS011;2310;49.978;8.742;2023-04-29T08:08:21;7.07;;;5.70;;
4595;SDS011;2310;49.978;8.742;2023-04-29T08:12:22;8.80;;;4.53;;
4595;SDS011;2310;49.978;8.742;2023-04-29T08:16:24;6.03;;;4.30;;
4595;SDS011;2310;49.978;8.742;2023-04-29T08:20:27;6.43;;;4.37;;
4595;SDS011;2310;49.978;8.742;2023-04-29T08:24:28;6.27;;;4.10;;
4595;SDS011;2310;49.978;8.742;2023-04-29T08:28:30;5.70;;;4.23;;
4595;SDS011;2310;49.978;8.742;2023-04-29T08:32:32;5.00;;;3.33;;
4595;SDS011;2310;49.978;8.742;2023-04-29T08:36:34;7.50;;;4.80;;
4595;SDS011;2310;49.978;8.742;2023-04-29T08:40:42;5.77;;;4.53;;
4595;SDS011;2310;49.978;8.742;2023-04-29T08:44:45;7.03;;;4.67;;
4595;SDS011;2310;49.978;8.742;2023-04-29T08:48:47;7.90;;;5.73;;
4595;SDS011;2310;49.978;8.742;2023-04-29T08:52:49;8.53;;;5.30;;
4595;SDS011;2310;49.978;8.742;2023-04-29T08:56:51;6.13;;;4.87;;
4595;SDS011;2310;49.978;8.742;2023-04-29T09:00:55;7.77;;;5.53;;
4595;SDS011;2310;49.978;8.742;2023-04-29T09:05:03;7.10;;;5.40;;
4595;SDS011;2310;49.978;8.742;2023-04-29T09:09:08;9.10;;;6.60;;
4595;SDS011;2310;49.978;8.742;2023-04-29T09:13:27;7.33;;;5.50;;
4595;SDS011;2310;49.978;8.742;2023-04-29T09:17:37;6.93;;;4.53;;
4595;SDS011;2310;49.978;8.742;2023-04-29T09:21:40;6.67;;;5.00;;
4595;SDS011;2310;49.978;8.742;2023-04-29T09:25:54;8.43;;;5.40;;
4595;SDS011;2310;49.978;8.742;2023-04-29T09:30:01;8.20;;;4.70;;
4595;SDS011;2310;49.978;8.742;2023-04-29T09:34:02;5.57;;;3.90;;
4595;SDS011;2310;49.978;8.742;2023-04-29T09:38:14;5.00;;;3.57;;
4595;SDS011;2310;49.978;8.742;2023-04-29T09:42:15;6.00;;;4.13;;
4595;SDS011;2310;49.978;8.742;2023-04-29T09:46:17;6.03;;;4.00;;
4595;SDS011;2310;49.978;8.742;2023-04-29T09:50:18;6.37;;;4.63;;
4595;SDS011;2310;49.978;8.742;2023-04-29T09:54:20;5.80;;;4.50;;
4595;SDS011;2310;49.978;8.742;2023-04-29T09:58:26;6.40;;;4.97;;
4595;SDS011;2310;49.978;8.742;2023-04-29T10:02:34;6.30;;;4.47;;
4595;SDS011;2310;49.978;8.742;2023-04-29T10:06:38;7.13;;;5.20;;
4595;SDS011;2310;49.978;8.742;2023-04-29T10:10:41;7.93;;;6.03;;
4595;SDS011;2310;49.978;8.742;2023-04-29T10:14:46;6.27;;;4.43;;
4595;SDS011;2310;49.978;8.742;2023-04-29T10:18:58;5.87;;;4.17;;
4595;SDS011;2310;49.978;8.742;2023-04-29T10:23:03;5.37;;;4.00;;
4595;SDS011;2310;49.978;8.742;2023-04-29T10:27:08;5.17;;;4.00;;
4595;SDS011;2310;49.978;8.742;2023-04-29T10:31:12;6.77;;;4.37;;
4595;SDS011;2310;49.978;8.742;2023-04-29T10:35:17;5.20;;;3.90;;
4595;SDS011;2310;49.978;8.742;2023-04-29T10:39:25;6.53;;;4.20;;
4595;SDS011;2310;49.978;8.742;2023-04-29T10:43:27;6.17;;;3.60;;
4595;SDS011;2310;49.978;8.742;2023-04-29T10:47:29;4.83;;;3.60;;
4595;SDS011;2310;49.978;8.742;2023-04-29T10:51:31;4.93;;;3.43;;
4595;SDS011;2310;49.978;8.742;2023-04-29T10:55:37;5.30;;;3.10;;
4595;SDS011;2310;49.978;8.742;2023-04-29T10:59:43;6.13;;;4.10;;
4595;SDS011;2310;49.978;8.742;2023-04-29T11:03:44;6.53;;;4.63;;
4595;SDS011;2310;49.978;8.742;2023-04-29T11:08:07;6.70;;;5.20;;
4595;SDS011;2310;49.978;8.742;2023-04-29T11:11:56;7.17;;;5.50;;
4595;SDS011;2310;49.978;8.742;2023-04-29T11:16:04;6.57;;;5.43;;
4595;SDS011;2310;49.978;8.742;2023-04-29T11:20:13;7.47;;;6.23;;
4595;SDS011;2310;49.978;8.742;2023-04-29T11:24:14;7.37;;;5.47;;
4595;SDS011;2310;49.978;8.742;2023-04-29T11:28:17;6.73;;;5.40;;
4595;SDS011;2310;49.978;8.742;2023-04-29T11:32:22;8.40;;;6.27;;
4595;SDS011;2310;49.978;8.742;2023-04-29T11:36:23;6.87;;;4.17;;
4595;SDS011;2310;49.978;8.742;2023-04-29T11:40:25;5.13;;;3.90;;
4595;SDS011;2310;49.978;8.742;2023-04-29T11:44:26;5.43;;;3.47;;
4595;SDS011;2310;49.978;8.742;2023-04-29T11:48:27;4.50;;;3.20;;
4595;SDS011;2310;49.978;8.742;2023-04-29T11:52:30;4.90;;;3.40;;
4595;SDS011;2310;49.978;8.742;2023-04-29T11:56:32;6.50;;;5.17;;
4595;SDS011;2310;49.978;8.742;2023-04-29T12:00:33;5.67;;;3.93;;
4595;SDS011;2310;49.978;8.742;2023-04-29T12:04:43;4.80;;;2.80;;
4595;SDS011;2310;49.978;8.742;2023-04-29T12:08:45;4.30;;;2.93;;
4595;SDS011;2310;49.978;8.742;2023-04-29T12:12:48;4.20;;;3.20;;
4595;SDS011;2310;49.978;8.742;2023-04-29T12:16:50;7.33;;;4.03;;
4595;SDS011;2310;49.978;8.742;2023-04-29T12:20:52;4.47;;;3.00;;
4595;SDS011;2310;49.978;8.742;2023-04-29T12:24:55;4.03;;;3.00;;
4595;SDS011;2310;49.978;8.742;2023-04-29T12:28:57;4.70;;;3.00;;
4595;SDS011;2310;49.978;8.742;2023-04-29T12:32:59;5.50;;;3.50;;
4595;SDS011;2310;49.978;8.742;2023-04-29T12:37:02;4.00;;;3.17;;
4595;SDS011;2310;49.978;8.742;2023-04-29T12:41:03;4.10;;;3.30;;
4595;SDS011;2310;49.978;8.742;2023-04-29T12:45:07;4.30;;;3.00;;
4595;SDS011;2310;49.978;8.742;2023-04-29T12:49:08;4.97;;;2.80;;
4595;SDS011;2310;49.978;8.742;2023-04-29T12:53:11;4.30;;;2.83;;
4595;SDS011;2310;49.978;8.742;2023-04-29T12:57:13;4.97;;;3.37;;
4595;SDS011;2310;49.978;8.742;2023-04-29T13:01:15;4.30;;;3.27;;
4595;SDS011;2310;49.978;8.742;2023-04-29T13:05:18;4.77;;;3.40;;
4595;SDS011;2310;49.978;8.742;2023-04-29T13:09:19;4.10;;;3.13;;
4595;SDS011;2310;49.978;8.742;2023-04-29T13:13:20;4.93;;;3.20;;
4595;SDS011;2310;49.978;8.742;2023-04-29T13:17:22;4.33;;;3.20;;
4595;SDS011;2310;49.978;8.742;2023-04-29T13:21:23;3.63;;;2.60;;
4595;SDS011;2310;49.978;8.742;2023-04-29T13:25:24;4.60;;;2.67;;
4595;SDS011;2310;49.978;8.742;2023-04-29T13:29:26;6.83;;;3.13;;
4595;SDS011;2310;49.978;8.742;2023-04-29T13:33:27;4.30;;;2.77;;
4595;SDS011;2310;49.978;8.742;2023-04-29T13:37:28;5.53;;;3.60;;
4595;SDS011;2310;49.978;8.742;2023-04-29T13:41:29;4.97;;;3.60;;
4595;SDS011;2310;49.978;8.742;2023-04-29T13:45:32;4.40;;;3.20;;
4595;SDS011;2310;49.978;8.742;2023-04-29T13:49:42;6.80;;;4.07;;
4595;SDS011;2310;49.978;8.742;2023-04-29T13:53:42;4.53;;;3.10;;
4595;SDS011;2310;49.978;8.742;2023-04-29T13:57:45;4.10;;;2.93;;
4595;SDS011;2310;49.978;8.742;2023-04-29T14:01:48;4.70;;;3.10;;
4595;SDS011;2310;49.978;8.742;2023-04-29T14:05:52;4.03;;;2.83;;
4595;SDS011;2310;49.978;8.742;2023-04-29T14:09:54;4.60;;;3.10;;
4595;SDS011;2310;49.978;8.742;2023-04-29T14:13:55;5.70;;;3.90;;
4595;SDS011;2310;49.978;8.742;2023-04-29T14:17:56;4.60;;;2.90;;
4595;SDS011;2310;49.978;8.742;2023-04-29T14:21:58;4.57;;;2.97;;
4595;SDS011;2310;49.978;8.742;2023-04-29T14:25:59;4.17;;;2.70;;
4595;SDS011;2310;49.978;8.742;2023-04-29T14:30:02;3.90;;;2.60;;
4595;SDS011;2310;49.978;8.742;2023-04-29T14:34:04;4.80;;;3.53;;
4595;SDS011;2310;49.978;8.742;2023-04-29T14:38:06;10.60;;;3.80;;
4595;SDS011;2310;49.978;8.742;2023-04-29T14:42:07;4.37;;;3.03;;
4595;SDS011;2310;49.978;8.742;2023-04-29T14:46:08;4.83;;;3.60;;
4595;SDS011;2310;49.978;8.742;2023-04-29T14:50:10;4.50;;;3.20;;
4595;SDS011;2310;49.978;8.742;2023-04-29T14:54:11;4.43;;;2.90;;
4595;SDS011;2310;49.978;8.742;2023-04-29T14:58:13;4.10;;;2.80;;
4595;SDS011;2310;49.978;8.742;2023-04-29T15:02:14;4.70;;;3.47;;
4595;SDS011;2310;49.978;8.742;2023-04-29T15:06:15;4.70;;;3.93;;
4595;SDS011;2310;49.978;8.742;2023-04-29T15:10:17;4.97;;;3.27;;
4595;SDS011;2310;49.978;8.742;2023-04-29T15:14:18;5.60;;;4.03;;
4595;SDS011;2310;49.978;8.742;2023-04-29T15:18:19;4.93;;;3.13;;
4595;SDS011;2310;49.978;8.742;2023-04-29T15:22:22;4.60;;;3.70;;
4595;SDS011;2310;49.978;8.742;2023-04-29T15:26:24;6.10;;;4.03;;
4595;SDS011;2310;49.978;8.742;2023-04-29T15:30:26;5.07;;;3.63;;
4595;SDS011;2310;49.978;8.742;2023-04-29T15:34:27;5.13;;;3.27;;
4595;SDS011;2310;49.978;8.742;2023-04-29T15:38:28;5.50;;;3.90;;
4595;SDS011;2310;49.978;8.742;2023-04-29T15:42:30;6.33;;;4.20;;
4595;SDS011;2310;49.978;8.742;2023-04-29T15:46:31;7.33;;;4.63;;
4595;SDS011;2310;49.978;8.742;2023-04-29T15:50:32;8.87;;;5.10;;
4595;SDS011;2310;49.978;8.742;2023-04-29T15:54:33;7.57;;;3.50;;
4595;SDS011;2310;49.978;8.742;2023-04-29T15:58:35;6.13;;;2.30;;
4595;SDS011;2310;49.978;8.742;2023-04-29T16:02:36;3.70;;;1.97;;
4595;SDS011;2310;49.978;8.742;2023-04-29T16:06:38;5.97;;;2.73;;
4595;SDS011;2310;49.978;8.742;2023-04-29T16:10:39;7.50;;;3.70;;
4595;SDS011;2310;49.978;8.742;2023-04-29T16:14:40;5.47;;;3.07;;
4595;SDS011;2310;49.978;8.742;2023-04-29T16:18:41;4.97;;;2.70;;
4595;SDS011;2310;49.978;8.742;2023-04-29T16:22:43;5.60;;;3.80;;
4595;SDS011;2310;49.978;8.742;2023-04-29T16:26:44;5.67;;;3.93;;
4595;SDS011;2310;49.978;8.742;2023-04-29T16:30:45;7.00;;;5.57;;
4595;SDS011;2310;49.978;8.742;2023-04-29T16:34:46;6.40;;;5.03;;
4595;SDS011;2310;49.978;8.742;2023-04-29T16:38:48;7.10;;;5.07;;
4595;SDS011;2310;49.978;8.742;2023-04-29T16:42:49;7.67;;;4.93;;
4595;SDS011;2310;49.978;8.742;2023-04-29T16:46:50;6.13;;;4.90;;
4595;SDS011;2310;49.978;8.742;2023-04-29T16:50:53;6.70;;;6.00;;
4595;SDS011;2310;49.978;8.742;2023-04-29T16:54:54;6.57;;;5.13;;
4595;SDS011;2310;49.978;8.742;2023-04-29T16:58:57;7.20;;;5.60;;
4595;SDS011;2310;49.978;8.742;2023-04-29T17:02:58;9.20;;;5.80;;
4595;SDS011;2310;49.978;8.742;2023-04-29T17:07:00;8.50;;;5.90;;
4595;SDS011;2310;49.978;8.742;2023-04-29T17:11:02;6.97;;;6.00;;
4595;SDS011;2310;49.978;8.742;2023-04-29T17:15:04;12.30;;;7.60;;
4595;SDS011;2310;49.978;8.742;2023-04-29T17:19:07;8.30;;;7.40;;
4595;SDS011;2310;49.978;8.742;2023-04-29T17:23:08;8.47;;;7.57;;
4595;SDS011;2310;49.978;8.742;2023-04-29T17:27:10;10.60;;;8.40;;
4595;SDS011;2310;49.978;8.742;2023-04-29T17:31:13;9.83;;;8.57;;
4595;SDS011;2310;49.978;8.742;2023-04-29T17:35:15;12.50;;;9.40;;
4595;SDS011;2310;49.978;8.742;2023-04-29T17:39:16;12.13;;;10.73;;
4595;SDS011;2310;49.978;8.742;2023-04-29T17:43:17;17.23;;;9.50;;
4595;SDS011;2310;49.978;8.742;2023-04-29T17:47:18;13.23;;;9.40;;
4595;SDS011;2310;49.978;8.742;2023-04-29T17:51:21;10.70;;;9.00;;
4595;SDS011;2310;49.978;8.742;2023-04-29T17:55:22;14.53;;;12.03;;
4595;SDS011;2310;49.978;8.742;2023-04-29T17:59:23;11.53;;;10.03;;
4595;SDS011;2310;49.978;8.742;2023-04-29T18:03:25;12.10;;;9.63;;
4595;SDS011;2310;49.978;8.742;2023-04-29T18:07:27;14.70;;;12.50;;
4595;SDS011;2310;49.978;8.742;2023-04-29T18:11:28;14.37;;;12.27;;
4595;SDS011;2310;49.978;8.742;2023-04-29T18:15:29;12.37;;;10.40;;
4595;SDS011;2310;49.978;8.742;2023-04-29T18:19:30;11.83;;;9.07;;
4595;SDS011;2310;49.978;8.742;2023-04-29T18:23:31;12.03;;;9.70;;
4595;SDS011;2310;49.978;8.742;2023-04-29T18:27:32;12.90;;;9.50;;
4595;SDS011;2310;49.978;8.742;2023-04-29T18:31:34;12.73;;;10.73;;
4595;SDS011;2310;49.978;8.742;2023-04-29T18:35:35;14.60;;;11.67;;
4595;SDS011;2310;49.978;8.742;2023-04-29T18:39:37;13.63;;;9.83;;
4595;SDS011;2310;49.978;8.742;2023-04-29T18:43:38;12.23;;;10.70;;
4595;SDS011;2310;49.978;8.742;2023-04-29T18:47:39;10.67;;;9.37;;
4595;SDS011;2310;49.978;8.742;2023-04-29T18:51:41;13.80;;;10.10;;
4595;SDS011;2310;49.978;8.742;2023-04-29T18:55:45;12.00;;;10.20;;
4595;SDS011;2310;49.978;8.742;2023-04-29T18:59:47;11.73;;;10.50;;
4595;SDS011;2310;49.978;8.742;2023-04-29T19:03:48;12.83;;;11.53;;
4595;SDS011;2310;49.978;8.742;2023-04-29T19:07:49;12.27;;;10.63;;
4595;SDS011;2310;49.978;8.742;2023-04-29T19:11:50;15.23;;;11.20;;
4595;SDS011;2310;49.978;8.742;2023-04-29T19:15:51;12.97;;;11.23;;
4595;SDS011;2310;49.978;8.742;2023-04-29T19:19:54;12.07;;;10.73;;
4595;SDS011;2310;49.978;8.742;2023-04-29T19:23:56;15.27;;;11.57;;
4595;SDS011;2310;49.978;8.742;2023-04-29T19:27:59;15.27;;;12.77;;
4595;SDS011;2310;49.978;8.742;2023-04-29T19:32:00;13.10;;;11.70;;
4595;SDS011;2310;49.978;8.742;2023-04-29T19:36:02;15.20;;;12.07;;
4595;SDS011;2310;49.978;8.742;2023-04-29T19:40:04;13.50;;;11.50;;
4595;SDS011;2310;49.978;8.742;2023-04-29T19:44:06;14.53;;;12.47;;
4595;SDS011;2310;49.978;8.742;2023-04-29T19:48:07;14.20;;;12.70;;
4595;SDS011;2310;49.978;8.742;2023-04-29T19:52:08;15.80;;;12.57;;
4595;SDS011;2310;49.978;8.742;2023-04-29T19:56:09;14.43;;;12.17;;
4595;SDS011;2310;49.978;8.742;2023-04-29T20:00:11;16.70;;;13.17;;
4595;SDS011;2310;49.978;8.742;2023-04-29T20:04:14;14.70;;;12.43;;
4595;SDS011;2310;49.978;8.742;2023-04-29T20:08:15;15.10;;;12.67;;
4595;SDS011;2310;49.978;8.742;2023-04-29T20:12:16;15.00;;;13.00;;
4595;SDS011;2310;49.978;8.742;2023-04-29T20:16:17;13.67;;;12.10;;
4595;SDS011;2310;49.978;8.742;2023-04-29T20:20:19;14.00;;;12.50;;
4595;SDS011;2310;49.978;8.742;2023-04-29T20:24:20;13.43;;;12.03;;
4595;SDS011;2310;49.978;8.742;2023-04-29T20:28:21;14.30;;;12.80;;
4595;SDS011;2310;49.978;8.742;2023-04-29T20:32:22;15.23;;;13.13;;
4595;SDS011;2310;49.978;8.742;2023-04-29T20:36:24;17.40;;;13.90;;
4595;SDS011;2310;49.978;8.742;2023-04-29T20:40:27;16.90;;;13.70;;
4595;SDS011;2310;49.978;8.742;2023-04-29T20:44:28;16.05;;;14.55;;
4595;SDS011;2310;49.978;8.742;2023-04-29T20:48:29;14.70;;;13.13;;
4595;SDS011;2310;49.978;8.742;2023-04-29T20:52:31;15.83;;;12.73;;
4595;SDS011;2310;49.978;8.742;2023-04-29T20:56:34;13.50;;;12.10;;
4595;SDS011;2310;49.978;8.742;2023-04-29T21:00:35;17.73;;;15.00;;
4595;SDS011;2310;49.978;8.742;2023-04-29T21:04:37;15.63;;;13.80;;
4595;SDS011;2310;49.978;8.742;2023-04-29T21:08:38;14.40;;;13.00;;
4595;SDS011;2310;49.978;8.742;2023-04-29T21:12:39;17.40;;;14.33;;
4595;SDS011;2310;49.978;8.742;2023-04-29T21:16:40;15.67;;;14.07;;
4595;SDS011;2310;49.978;8.742;2023-04-29T21:20:42;15.87;;;14.17;;
4595;SDS011;2310;49.978;8.742;2023-04-29T21:24:43;15.37;;;13.77;;
4595;SDS011;2310;49.978;8.742;2023-04-29T21:28:44;15.27;;;13.70;;
4595;SDS011;2310;49.978;8.742;2023-04-29T21:32:46;16.33;;;14.63;;
4595;SDS011;2310;49.978;8.742;2023-04-29T21:36:47;17.47;;;15.20;;
4595;SDS011;2310;49.978;8.742;2023-04-29T21:40:48;14.97;;;12.73;;
4595;SDS011;2310;49.978;8.742;2023-04-29T21:44:55;15.20;;;13.60;;
4595;SDS011;2310;49.978;8.742;2023-04-29T21:48:58;15.60;;;14.00;;
4595;SDS011;2310;49.978;8.742;2023-04-29T21:53:00;16.07;;;13.47;;
4595;SDS011;2310;49.978;8.742;2023-04-29T21:57:01;15.10;;;13.50;;
4595;SDS011;2310;49.978;8.742;2023-04-29T22:01:04;14.97;;;12.87;;
4595;SDS011;2310;49.978;8.742;2023-04-29T22:05:08;16.10;;;13.73;;
4595;SDS011;2310;49.978;8.742;2023-04-29T22:09:10;15.73;;;13.53;;
4595;SDS011;2310;49.978;8.742;2023-04-29T22:13:11;13.70;;;11.93;;
4595;SDS011;2310;49.978;8.742;2023-04-29T22:17:12;15.23;;;12.90;;
4595;SDS011;2310;49.978;8.742;2023-04-29T22:21:14;15.47;;;13.97;;
4595;SDS011;2310;49.978;8.742;2023-04-29T22:25:15;17.20;;;13.50;;
4595;SDS011;2310;49.978;8.742;2023-04-29T22:29:17;15.73;;;12.90;;
4595;SDS011;2310;49.978;8.742;2023-04-29T22:33:19;16.90;;;13.43;;
4595;SDS011;2310;49.978;8.742;2023-04-29T22:37:21;14.93;;;13.33;;
4595;SDS011;2310;49.978;8.742;2023-04-29T22:41:22;14.63;;;13.03;;
4595;SDS011;2310;49.978;8.742;2023-04-29T22:45:23;14.50;;;13.00;;
4595;SDS011;2310;49.978;8.742;2023-04-29T22:49:24;17.70;;;15.33;;
4595;SDS011;2310;49.978;8.742;2023-04-29T22:53:26;17.43;;;13.93;;
4595;SDS011;2310;49.978;8.742;2023-04-29T22:57:27;19.57;;;14.90;;
4595;SDS011;2310;49.978;8.742;2023-04-29T23:01:28;16.20;;;14.50;;
4595;SDS011;2310;49.978;8.742;2023-04-29T23:05:29;20.20;;;16.97;;
4595;SDS011;2310;49.978;8.742;2023-04-29T23:09:32;17.27;;;15.40;;
4595;SDS011;2310;49.978;8.742;2023-04-29T23:13:33;18.00;;;16.20;;
4595;SDS011;2310;49.978;8.742;2023-04-29T23:17:34;18.77;;;15.63;;
4595;SDS011;2310;49.978;8.742;2023-04-29T23:21:37;18.33;;;15.83;;
4595;SDS011;2310;49.978;8.742;2023-04-29T23:25:38;18.53;;;16.63;;
4595;SDS011;2310;49.978;8.742;2023-04-29T23:29:39;17.43;;;15.73;;
4595;SDS011;2310;49.978;8.742;2023-04-29T23:33:41;20.10;;;15.90;;
4595;SDS011;2310;49.978;8.742;2023-04-29T23:37:42;18.93;;;16.87;;
4595;SDS011;2310;49.978;8.742;2023-04-29T23:41:43;17.47;;;15.70;;
4595;SDS011;2310;49.978;8.742;2023-04-29T23:45:45;17.87;;;15.97;;
4595;SDS011;2310;49.978;8.742;2023-04-29T23:49:46;16.20;;;14.60;;
4595;SDS011;2310;49.978;8.742;2023-04-29T23:53:48;18.67;;;16.80;;
4595;SDS011;2310;49.978;8.742;2023-04-29T23:57:49;18.47;;;15.67;;
